Terminal Aerodrome Forecast
Issued by NWS

Home | Current Version | Previous Version | Graphics & Text | Print | Product List | Glossary On
Versions: 1 2 3 4 5 6 7 8 9 10 11 12 13 14 15 16
000
FTUS43 KMPX 012300
TAFAXN
TAF
KAXN 012334Z 0200/0224 33005KT P6SM SCT060 BKN110
     FM020200 28005KT P6SM SCT060
     FM021500 25010KT P6SM FEW250=

USA.gov is the U.S. government's official web portal to all federal, state and local government web resources and services.